Time;durP1;ratioP1;P1;durP2;ratioP2;P2;SDS_P1;SDS_P2;PMS_P1;PMS_P2;Temp;Humidity;BMP_temperature;BMP_pressure;BME280_temperature;BME280_humidity;BME280_pressure;Samples;Min_cycle;Max_cycle;Signal;HPM_P1;HPM_P2
2023/05/29 00:01:57;;;;;;;5.57;2.58;;;;;;;13.28;83.12;102330.47;5002596;28;20026;-80
2023/05/29 00:04:22;;;;;;;14.68;3.35;;;;;;;13.37;82.68;102342.41;5012947;28;20235;-81
2023/05/29 00:06:47;;;;;;;6.57;3.10;;;;;;;13.53;81.56;102346.03;5015464;28;20368;-81
2023/05/29 00:09:13;;;;;;;6.47;1.98;;;;;;;13.38;81.99;102344.84;5018107;28;20506;-80
2023/05/29 00:11:40;;;;;;;8.10;1.98;;;;;;;13.44;81.54;102347.41;4997462;28;20355;-81
2023/05/29 00:14:05;;;;;;;10.98;2.30;;;;;;;13.25;82.33;102350.88;5007989;28;20183;-80
2023/05/29 00:16:31;;;;;;;8.23;2.42;;;;;;;13.36;81.37;102352.81;5018760;28;20504;-81
2023/05/29 00:18:57;;;;;;;15.10;2.42;;;;;;;13.50;80.19;102360.84;5009882;28;20665;-81
2023/05/29 00:21:23;;;;;;;6.72;2.38;;;;;;;13.32;81.56;102351.91;5016166;28;20087;-81
2023/05/29 00:23:48;;;;;;;9.10;2.00;;;;;;;13.31;81.38;102344.66;5006661;28;20029;-81
2023/05/29 00:26:16;;;;;;;6.70;2.83;;;;;;;13.42;80.01;102354.19;5018202;28;20029;-81
2023/05/29 00:28:42;;;;;;;4.43;1.98;;;;;;;13.30;80.45;102353.44;5007294;28;20034;-80
2023/05/29 00:31:07;;;;;;;8.50;2.08;;;;;;;13.33;80.00;102358.38;5009472;28;20091;-81
2023/05/29 00:33:33;;;;;;;7.75;3.00;;;;;;;13.30;80.74;102361.88;5003497;28;20124;-81
2023/05/29 00:35:58;;;;;;;16.48;3.72;;;;;;;13.27;80.69;102359.78;5011986;28;20030;-81
2023/05/29 00:38:24;;;;;;;14.30;3.35;;;;;;;13.43;79.59;102357.84;5022268;28;20513;-81
2023/05/29 00:40:49;;;;;;;8.55;2.22;;;;;;;13.22;80.88;102347.63;5022042;28;20433;-81
2023/05/29 00:43:15;;;;;;;9.27;2.65;;;;;;;13.02;81.35;102354.28;5003601;28;20032;-81
2023/05/29 00:45:40;;;;;;;3.90;2.22;;;;;;;13.14;80.53;102345.78;5028231;28;20080;-80
2023/05/29 00:48:06;;;;;;;7.65;2.42;;;;;;;13.20;80.16;102349.97;5025918;28;20036;-81
2023/05/29 00:50:33;;;;;;;10.95;3.08;;;;;;;12.79;82.54;102351.22;5022648;28;20064;-81
2023/05/29 00:53:02;;;;;;;9.40;2.58;;;;;;;12.91;81.52;102353.16;5015454;28;20129;-80
2023/05/29 00:55:29;;;;;;;15.65;2.28;;;;;;;13.09;80.79;102360.13;4995178;28;20030;-81
2023/05/29 00:57:55;;;;;;;12.20;3.08;;;;;;;13.02;80.98;102355.09;5017292;28;20462;-81
2023/05/29 01:00:21;;;;;;;9.32;3.10;;;;;;;12.54;83.74;102361.72;5015099;28;20125;-81
2023/05/29 01:02:47;;;;;;;7.57;2.03;;;;;;;12.73;82.28;102356.28;4993219;28;20076;-80
2023/05/29 01:05:13;;;;;;;5.75;3.35;;;;;;;12.88;81.49;102360.34;5014437;28;20439;-81
2023/05/29 01:07:39;;;;;;;12.43;2.30;;;;;;;12.87;81.54;102352.25;5018054;28;20040;-81
2023/05/29 01:10:08;;;;;;;9.00;3.28;;;;;;;12.75;82.20;102361.53;5007225;28;20379;-80
2023/05/29 01:12:49;;;;;;;4.43;2.45;;;;;;;12.75;81.86;102367.97;4996662;28;20021;-81
2023/05/29 01:15:18;;;;;;;4.07;2.08;;;;;;;12.91;81.02;102364.41;5001612;28;20129;-80
2023/05/29 01:17:52;;;;;;;9.63;2.28;;;;;;;12.61;82.27;102361.94;5000459;28;20025;-81
2023/05/29 01:20:35;;;;;;;10.73;2.15;;;;;;;12.68;81.79;102361.34;5005107;28;20381;-81
2023/05/29 01:23:19;;;;;;;9.60;1.88;;;;;;;12.73;81.51;102356.28;4998858;28;20109;-81
2023/05/29 01:26:08;;;;;;;8.27;2.70;;;;;;;12.39;83.42;102360.47;4999652;28;20042;-81
2023/05/29 01:28:42;;;;;;;5.45;1.55;;;;;;;12.50;82.64;102369.22;4993319;28;20042;-81
2023/05/29 01:31:10;;;;;;;8.98;2.55;;;;;;;12.55;82.38;102377.41;4998369;28;20026;-81
2023/05/29 01:33:40;;;;;;;8.25;2.80;;;;;;;12.48;82.79;102378.03;4993008;28;20033;-81
2023/05/29 01:36:06;;;;;;;5.45;1.95;;;;;;;12.43;83.48;102388.66;4991846;28;20116;-80
2023/05/29 01:38:31;;;;;;;10.73;2.47;;;;;;;12.57;82.17;102384.31;4991729;28;20034;-81
2023/05/29 01:40:58;;;;;;;10.65;2.42;;;;;;;12.46;82.41;102388.78;4992172;28;20029;-80
2023/05/29 01:43:24;;;;;;;8.90;2.67;;;;;;;12.64;81.44;102397.75;4994675;28;20044;-80
2023/05/29 01:45:50;;;;;;;8.73;2.53;;;;;;;12.54;81.79;102398.22;4995640;28;20392;-81
2023/05/29 01:48:16;;;;;;;8.82;2.10;;;;;;;12.57;81.78;102397.53;4998415;28;20025;-81
2023/05/29 01:50:43;;;;;;;13.60;2.10;;;;;;;12.51;81.81;102401.75;4996622;28;20033;-81
2023/05/29 01:53:09;;;;;;;9.30;1.98;;;;;;;12.56;81.67;102407.13;5007458;28;20087;-80
2023/05/29 01:55:35;;;;;;;12.98;2.63;;;;;;;12.38;82.67;102400.97;4999191;28;20484;-80
2023/05/29 01:58:01;;;;;;;14.63;2.10;;;;;;;12.23;83.34;102399.69;5005659;28;20026;-80
2023/05/29 02:00:26;;;;;;;9.40;1.83;;;;;;;12.39;82.22;102402.59;5001652;28;20129;-80
2023/05/29 02:02:52;;;;;;;10.15;3.00;;;;;;;12.28;83.24;102399.44;5009278;28;20121;-80
2023/05/29 02:05:17;;;;;;;14.13;2.22;;;;;;;12.27;82.95;102403.44;5002293;28;20550;-81
2023/05/29 02:07:42;;;;;;;4.30;1.90;;;;;;;12.26;83.20;102406.59;5000537;28;20030;-80
2023/05/29 02:10:08;;;;;;;7.45;2.08;;;;;;;12.32;82.24;102405.19;4998743;28;20034;-80
2023/05/29 02:12:34;;;;;;;7.97;2.63;;;;;;;12.31;82.12;102404.38;5011153;28;20030;-80
2023/05/29 02:14:59;;;;;;;8.82;1.83;;;;;;;12.04;83.96;102388.22;5008108;28;20045;-80
2023/05/29 02:17:25;;;;;;;9.07;2.17;;;;;;;12.19;82.90;102384.72;5019261;28;20052;-80
2023/05/29 02:19:50;;;;;;;8.02;2.13;;;;;;;12.25;82.65;102399.31;5024540;28;20036;-80
2023/05/29 02:22:17;;;;;;;15.93;3.08;;;;;;;12.22;82.36;102392.44;5015818;28;20033;-80
2023/05/29 02:24:43;;;;;;;5.15;1.75;;;;;;;12.29;82.05;102392.69;5022170;28;20216;-80
2023/05/29 02:27:09;;;;;;;10.82;1.88;;;;;;;12.15;82.81;102390.22;5014782;28;20429;-80
2023/05/29 02:29:34;;;;;;;9.02;3.20;;;;;;;12.06;82.77;102386.72;5001348;28;20037;-80
2023/05/29 02:32:00;;;;;;;8.77;1.83;;;;;;;12.00;83.33;102391.75;5020963;28;20021;-80
2023/05/29 02:34:25;;;;;;;4.80;1.65;;;;;;;12.11;82.74;102394.09;5016038;28;20769;-81
2023/05/29 02:36:54;;;;;;;6.35;2.28;;;;;;;12.02;83.06;102388.59;4999651;28;20102;-81
2023/05/29 02:39:20;;;;;;;9.38;2.22;;;;;;;11.89;83.93;102393.41;5014006;28;20057;-81
2023/05/29 02:41:45;;;;;;;9.18;2.40;;;;;;;12.08;82.52;102398.44;5021019;28;20059;-81
2023/05/29 02:44:11;;;;;;;10.27;2.03;;;;;;;12.09;82.71;102408.47;5019386;28;20029;-80
2023/05/29 02:46:36;;;;;;;12.38;2.97;;;;;;;11.86;84.38;102405.28;5019165;28;20053;-80
2023/05/29 02:49:02;;;;;;;9.88;2.83;;;;;;;11.91;83.36;102410.69;5009325;28;20040;-80
2023/05/29 02:51:27;;;;;;;9.45;2.25;;;;;;;11.96;83.00;102404.84;5019581;28;20030;-81
2023/05/29 02:53:53;;;;;;;7.50;1.67;;;;;;;11.98;82.64;102401.69;5025733;28;20056;-80
2023/05/29 02:56:23;;;;;;;9.57;2.08;;;;;;;11.77;84.35;102405.38;5023701;28;20057;-80
2023/05/29 02:58:51;;;;;;;6.72;1.75;;;;;;;11.86;83.37;102410.88;5023097;28;20060;-80
2023/05/29 03:01:17;;;;;;;10.07;2.65;;;;;;;12.00;82.57;102404.97;5011435;28;20677;-80
2023/05/29 03:03:43;;;;;;;6.47;1.60;;;;;;;11.91;82.75;102402.28;5017163;28;20109;-80
2023/05/29 03:06:09;;;;;;;9.68;2.50;;;;;;;11.88;83.18;102408.56;4998864;28;20789;-81
2023/05/29 03:08:39;;;;;;;6.55;2.10;;;;;;;11.85;82.89;102403.66;5018892;28;20434;-81
2023/05/29 03:11:05;;;;;;;7.13;2.58;;;;;;;11.76;83.59;102400.13;5004727;28;20060;-81
2023/05/29 03:13:34;;;;;;;5.47;2.28;;;;;;;11.86;82.99;102405.28;5008624;28;20575;-81
2023/05/29 03:15:59;;;;;;;6.45;2.08;;;;;;;11.72;83.61;102393.56;5012342;28;20131;-81
2023/05/29 03:18:25;;;;;;;7.32;1.98;;;;;;;11.83;83.09;102397.56;4998664;28;20029;-81
2023/05/29 03:20:50;;;;;;;6.43;2.20;;;;;;;11.71;84.01;102397.56;5011352;28;20030;-81
2023/05/29 03:23:15;;;;;;;10.48;2.45;;;;;;;11.83;82.56;102396.72;4995576;28;20048;-81
2023/05/29 03:25:41;;;;;;;4.82;1.50;;;;;;;11.65;83.15;102390.53;5016360;28;20030;-81
2023/05/29 03:28:06;;;;;;;9.40;2.45;;;;;;;11.73;83.58;102389.59;5016140;28;20013;-81
2023/05/29 03:30:31;;;;;;;10.55;2.08;;;;;;;11.66;83.17;102392.16;5020559;28;20028;-81
2023/05/29 03:33:02;;;;;;;8.23;3.33;;;;;;;11.67;83.47;102391.00;4995141;28;20065;-81
2023/05/29 03:35:28;;;;;;;13.68;2.47;;;;;;;11.58;84.22;102393.91;5016197;28;20399;-81
2023/05/29 03:37:53;;;;;;;9.48;2.15;;;;;;;11.65;83.05;102393.34;5002090;28;20017;-81
2023/05/29 03:40:19;;;;;;;6.95;2.28;;;;;;;11.44;84.57;102385.81;4997245;28;20029;-81
2023/05/29 03:42:44;;;;;;;5.28;1.73;;;;;;;11.53;84.03;102392.16;5013255;28;20029;-81
2023/05/29 03:45:10;;;;;;;13.60;2.63;;;;;;;11.63;83.20;102390.88;5019103;28;20029;-81
2023/05/29 03:47:36;;;;;;;8.32;1.95;;;;;;;11.54;83.50;102388.16;5011320;28;20124;-81
2023/05/29 03:50:01;;;;;;;8.43;3.35;;;;;;;11.62;83.50;102392.03;5009409;28;20064;-81
2023/05/29 03:52:27;;;;;;;14.65;3.05;;;;;;;11.58;83.36;102397.53;5000299;28;20022;-81
2023/05/29 03:54:52;;;;;;;10.82;2.35;;;;;;;11.70;82.73;102388.31;5021905;28;20132;-81
2023/05/29 03:57:17;;;;;;;4.93;1.65;;;;;;;11.55;84.09;102405.81;5023703;28;20120;-81
2023/05/29 03:59:43;;;;;;;5.60;2.15;;;;;;;11.68;83.15;102401.88;5022426;28;20416;-81
2023/05/29 04:02:08;;;;;;;10.18;2.30;;;;;;;11.60;84.24;102409.22;5026913;28;20033;-81
2023/05/29 04:04:34;;;;;;;7.07;2.15;;;;;;;11.62;83.67;102410.88;5005542;28;20037;-81
2023/05/29 04:06:59;;;;;;;10.73;1.80;;;;;;;11.63;83.95;102407.69;5011205;28;20121;-81
2023/05/29 04:09:25;;;;;;;7.68;2.75;;;;;;;11.64;83.39;102414.13;5001714;28;20447;-81
2023/05/29 04:11:51;;;;;;;10.07;2.13;;;;;;;11.49;84.00;102415.59;5013814;28;20029;-80
2023/05/29 04:14:17;;;;;;;10.05;1.98;;;;;;;11.34;84.81;102422.69;5024945;28;20050;-80
2023/05/29 04:16:42;;;;;;;9.00;2.20;;;;;;;11.54;84.35;102427.44;5024995;28;20447;-81
2023/05/29 04:19:08;;;;;;;6.78;2.28;;;;;;;11.67;83.16;102435.88;5007097;28;20050;-81
2023/05/29 04:21:34;;;;;;;10.35;2.40;;;;;;;11.60;83.51;102437.25;5009341;28;20030;-80
2023/05/29 04:24:00;;;;;;;10.05;2.05;;;;;;;11.45;85.29;102440.72;5027110;28;20031;-81
2023/05/29 04:26:25;;;;;;;8.27;2.15;;;;;;;11.43;85.17;102442.25;5006679;28;20557;-80
2023/05/29 04:28:57;;;;;;;4.80;2.13;;;;;;;11.40;85.02;102443.75;5003233;28;20025;-81
2023/05/29 04:31:25;;;;;;;10.13;2.03;;;;;;;11.36;85.45;102442.78;5026575;28;20508;-81
2023/05/29 04:33:54;;;;;;;9.55;2.15;;;;;;;11.19;86.36;102453.03;5022298;28;20095;-81
2023/05/29 04:36:26;;;;;;;16.80;2.45;;;;;;;11.48;84.23;102445.63;5017521;28;20037;-81
2023/05/29 04:38:54;;;;;;;5.90;2.07;;;;;;;11.19;86.16;102450.22;5029052;28;20507;-81
2023/05/29 04:41:23;;;;;;;8.07;2.03;;;;;;;11.41;84.73;102455.78;5027082;28;20068;-80
2023/05/29 04:43:50;;;;;;;8.60;2.47;;;;;;;11.15;86.23;102449.28;5028260;28;20041;-80
2023/05/29 04:46:16;;;;;;;5.45;2.00;;;;;;;11.35;85.52;102457.97;5005259;28;20086;-80
2023/05/29 04:48:42;;;;;;;6.57;2.47;;;;;;;11.25;85.47;102452.81;5022425;28;20057;-80
2023/05/29 04:51:10;;;;;;;11.45;2.22;;;;;;;11.32;84.97;102456.69;5022388;28;20112;-80
2023/05/29 04:53:37;;;;;;;8.23;2.33;;;;;;;11.30;85.53;102446.97;5004468;28;20040;-81
2023/05/29 04:56:02;;;;;;;8.82;2.47;;;;;;;11.33;86.37;102457.50;5023248;28;20025;-80
2023/05/29 04:58:28;;;;;;;5.78;2.58;;;;;;;11.25;87.30;102452.81;5019052;28;20038;-80
2023/05/29 05:00:57;;;;;;;6.15;1.85;;;;;;;11.41;84.79;102462.22;5023904;28;20029;-82
2023/05/29 05:03:24;;;;;;;4.13;1.95;;;;;;;11.27;87.12;102451.28;5015936;28;20096;-82
2023/05/29 05:05:49;;;;;;;8.02;1.80;;;;;;;11.52;84.42;102451.38;5020500;28;20471;-82
2023/05/29 05:08:15;;;;;;;10.45;2.00;;;;;;;11.66;83.30;102462.25;5023486;28;20029;-81
2023/05/29 05:10:41;;;;;;;6.00;2.55;;;;;;;11.47;85.82;102460.84;5009149;28;20033;-82
2023/05/29 05:13:07;;;;;;;11.55;2.65;;;;;;;11.38;86.59;102468.50;5027077;28;20281;-82
2023/05/29 05:15:32;;;;;;;10.02;2.90;;;;;;;11.46;85.63;102463.97;5026550;28;20446;-81
2023/05/29 05:17:58;;;;;;;13.18;2.80;;;;;;;11.22;89.05;102465.53;5020726;28;20026;-81
2023/05/29 05:20:23;;;;;;;9.23;3.28;;;;;;;11.49;84.88;102463.28;5004189;28;20116;-81
2023/05/29 05:22:48;;;;;;;6.25;2.17;;;;;;;11.59;85.00;102471.25;5024515;28;20034;-82
2023/05/29 05:25:14;;;;;;;13.02;2.83;;;;;;;11.39;85.71;102470.16;5025257;28;20029;-81
2023/05/29 05:27:39;;;;;;;8.88;2.50;;;;;;;11.63;84.49;102475.00;5022048;28;20028;-82
2023/05/29 05:30:06;;;;;;;10.07;2.15;;;;;;;11.48;85.19;102478.47;5021190;28;20215;-81
2023/05/29 05:32:32;;;;;;;11.50;2.40;;;;;;;11.66;84.63;102479.09;5012677;28;20044;-81
2023/05/29 05:34:57;;;;;;;5.15;2.08;;;;;;;11.25;88.14;102480.84;5016552;28;20029;-81
2023/05/29 05:37:23;;;;;;;9.18;2.05;;;;;;;11.71;84.46;102485.31;5011281;28;20029;-81
2023/05/29 05:39:50;;;;;;;6.95;2.00;;;;;;;11.58;87.16;102478.03;4993764;28;20838;-81
2023/05/29 05:42:16;;;;;;;6.15;2.35;;;;;;;11.67;85.50;102475.16;4998064;28;20025;-81
2023/05/29 05:44:41;;;;;;;7.75;2.22;;;;;;;11.71;85.92;102482.50;5015407;28;20037;-81
2023/05/29 05:47:06;;;;;;;4.47;1.90;;;;;;;11.69;85.68;102479.22;5015672;28;20092;-81
2023/05/29 05:49:32;;;;;;;13.35;2.63;;;;;;;11.40;88.09;102474.56;5018564;28;20029;-81
2023/05/29 05:51:57;;;;;;;7.85;3.05;;;;;;;11.45;88.91;102468.78;5024344;28;20044;-80
2023/05/29 05:54:22;;;;;;;12.85;2.17;;;;;;;11.58;88.24;102473.25;5018874;28;20030;-81
2023/05/29 05:56:48;;;;;;;8.88;2.78;;;;;;;11.38;88.95;102471.31;5005894;28;20037;-81
2023/05/29 05:59:13;;;;;;;4.18;1.90;;;;;;;11.63;86.75;102468.59;4997437;28;20120;-80
2023/05/29 06:01:41;;;;;;;11.57;2.92;;;;;;;11.71;86.24;102474.09;5015469;28;20522;-81
2023/05/29 06:04:06;;;;;;;15.50;2.47;;;;;;;11.10;91.88;102469.06;5012174;28;20527;-81
2023/05/29 06:06:32;;;;;;;8.07;1.90;;;;;;;11.48;87.95;102479.28;5004542;28;20033;-81
2023/05/29 06:08:58;;;;;;;7.47;1.92;;;;;;;11.50;89.82;102476.16;5010518;28;20038;-80
2023/05/29 06:11:25;;;;;;;6.25;2.13;;;;;;;11.58;86.89;102478.84;5023804;28;20483;-81
2023/05/29 06:13:51;;;;;;;5.38;2.58;;;;;;;11.66;87.11;102463.13;5015580;28;20021;-81
2023/05/29 06:16:17;;;;;;;5.68;1.90;;;;;;;11.66;85.99;102479.09;5017788;28;20531;-81
2023/05/29 06:18:44;;;;;;;9.90;2.58;;;;;;;11.83;86.29;102473.31;5017254;28;20052;-81
2023/05/29 06:21:09;;;;;;;15.05;2.60;;;;;;;11.63;86.00;102477.00;5001722;28;20509;-81
2023/05/29 06:23:36;;;;;;;8.15;1.80;;;;;;;11.46;85.83;102476.00;5023463;28;20021;-81
2023/05/29 06:26:03;;;;;;;10.35;2.38;;;;;;;11.97;83.50;102485.06;5026135;28;20029;-81
2023/05/29 06:28:29;;;;;;;17.60;2.78;;;;;;;11.57;85.20;102494.06;5011833;28;20547;-81
2023/05/29 06:30:54;;;;;;;12.65;2.28;;;;;;;11.38;85.95;102476.91;5014774;28;20029;-81
2023/05/29 06:33:21;;;;;;;7.93;2.60;;;;;;;11.51;85.17;102484.22;5002036;28;20087;-81
2023/05/29 06:35:46;;;;;;;11.95;2.92;;;;;;;11.48;84.10;102478.47;5014411;28;20034;-81
2023/05/29 06:38:12;;;;;;;6.93;2.42;;;;;;;11.72;84.37;102483.31;5011458;28;20140;-81
2023/05/29 06:40:37;;;;;;;6.40;2.10;;;;;;;11.95;82.93;102487.41;5011889;28;20109;-78
2023/05/29 06:43:03;;;;;;;17.05;3.15;;;;;;;11.68;85.06;102486.03;5001088;28;20021;-80
2023/05/29 06:45:28;;;;;;;10.50;1.65;;;;;;;12.02;82.13;102492.44;5023303;28;20132;-81
2023/05/29 06:47:55;;;;;;;7.60;3.65;;;;;;;11.73;84.33;102491.41;5022493;28;20581;-81
2023/05/29 06:50:20;;;;;;;10.60;2.65;;;;;;;11.92;83.50;102495.69;5020292;28;20026;-81
2023/05/29 06:52:45;;;;;;;15.60;3.08;;;;;;;11.93;82.18;102506.56;5022716;28;20048;-81
2023/05/29 06:55:11;;;;;;;11.45;2.22;;;;;;;12.03;81.64;102504.47;5013875;28;20432;-81
2023/05/29 06:57:36;;;;;;;14.23;2.58;;;;;;;12.15;82.16;102502.50;5019224;28;20060;-81
2023/05/29 07:00:05;;;;;;;10.15;2.40;;;;;;;12.17;81.72;102504.97;5013551;28;20070;-81
2023/05/29 07:02:30;;;;;;;12.63;3.00;;;;;;;12.37;79.86;102511.63;5020897;28;20037;-81
2023/05/29 07:04:56;;;;;;;14.55;2.53;;;;;;;12.23;80.24;102512.00;5009832;28;20040;-81
2023/05/29 07:07:21;;;;;;;11.82;2.00;;;;;;;12.15;79.44;102515.72;5002834;28;20032;-81
2023/05/29 07:09:47;;;;;;;9.27;2.03;;;;;;;12.27;80.20;102509.28;5009637;28;20034;-81
2023/05/29 07:12:12;;;;;;;6.47;2.42;;;;;;;12.41;78.90;102516.19;5015841;28;20030;-82
2023/05/29 07:14:37;;;;;;;11.93;2.58;;;;;;;12.28;79.54;102516.56;5007731;28;20044;-82
2023/05/29 07:17:03;;;;;;;11.77;2.55;;;;;;;12.44;79.36;102511.03;5009307;28;20061;-81
2023/05/29 07:19:29;;;;;;;13.77;2.20;;;;;;;12.53;78.87;102520.19;5018305;28;20032;-81
2023/05/29 07:21:54;;;;;;;9.15;3.20;;;;;;;12.59;78.38;102515.97;5009741;28;20034;-81
2023/05/29 07:24:20;;;;;;;6.57;2.72;;;;;;;12.49;78.31;102514.44;5011657;28;20038;-81
2023/05/29 07:26:45;;;;;;;6.90;2.20;;;;;;;12.70;78.18;102521.94;5026674;28;20025;-81
2023/05/29 07:29:11;;;;;;;4.93;1.92;;;;;;;12.77;77.54;102514.53;5016567;28;20037;-81
2023/05/29 07:31:40;;;;;;;6.68;2.15;;;;;;;12.71;78.04;102518.78;5000163;28;20026;-81
2023/05/29 07:34:05;;;;;;;7.38;2.63;;;;;;;12.79;76.65;102520.63;5003165;28;20036;-81
2023/05/29 07:36:31;;;;;;;4.93;1.95;;;;;;;13.03;75.99;102518.97;4997727;28;20022;-81
2023/05/29 07:38:58;;;;;;;12.55;3.00;;;;;;;12.63;75.36;102516.06;5017694;28;20026;-81
2023/05/29 07:41:23;;;;;;;4.97;2.13;;;;;;;12.81;76.28;102514.66;5022770;28;20030;-81
2023/05/29 07:43:51;;;;;;;10.85;2.58;;;;;;;13.20;75.53;102518.69;5007043;28;20021;-81
2023/05/29 07:46:17;;;;;;;15.43;2.95;;;;;;;13.12;74.89;102527.25;4999962;28;20041;-81
2023/05/29 07:48:43;;;;;;;10.48;2.00;;;;;;;13.16;75.56;102517.75;4994761;28;20022;-81
2023/05/29 07:51:10;;;;;;;9.70;2.53;;;;;;;13.06;75.80;102518.25;4996636;28;20101;-81
2023/05/29 07:53:35;;;;;;;7.22;2.10;;;;;;;13.07;76.28;102521.88;5018866;28;20033;-81
2023/05/29 07:56:01;;;;;;;9.98;2.88;;;;;;;13.01;75.82;102521.31;5026567;28;20395;-81
2023/05/29 07:58:27;;;;;;;7.78;2.65;;;;;;;13.05;75.56;102524.22;5004403;28;20040;-82
2023/05/29 08:00:52;;;;;;;9.52;3.08;;;;;;;13.13;75.41;102526.06;5002474;28;20455;-81
2023/05/29 08:03:18;;;;;;;7.95;2.22;;;;;;;13.20;74.26;102529.91;5020803;28;20162;-81
2023/05/29 08:05:44;;;;;;;6.20;2.75;;;;;;;13.19;74.66;102533.91;5016365;28;20395;-81
2023/05/29 08:08:12;;;;;;;13.45;2.45;;;;;;;13.16;73.09;102529.00;5001226;28;20033;-81
2023/05/29 08:10:38;;;;;;;3.85;2.47;;;;;;;13.36;73.37;102526.38;5021276;28;20033;-81
2023/05/29 08:13:03;;;;;;;8.75;2.30;;;;;;;13.46;72.16;102531.50;5017541;28;20377;-81
2023/05/29 08:15:29;;;;;;;7.65;2.35;;;;;;;13.65;73.55;102527.22;5015796;28;20311;-81
2023/05/29 08:17:54;;;;;;;7.53;3.67;;;;;;;13.50;72.60;102538.06;4997090;28;20029;-82
2023/05/29 08:20:20;;;;;;;10.90;2.97;;;;;;;13.49;71.71;102530.81;5011465;28;20050;-81
2023/05/29 08:22:46;;;;;;;14.10;2.88;;;;;;;13.55;72.00;102532.16;5026397;28;20468;-82
2023/05/29 08:25:11;;;;;;;11.93;3.25;;;;;;;13.25;73.49;102528.84;5020670;28;20030;-82
2023/05/29 08:27:36;;;;;;;9.77;2.78;;;;;;;13.54;72.47;102530.53;5021579;28;20034;-82
2023/05/29 08:30:03;;;;;;;11.80;3.05;;;;;;;13.42;72.09;102536.19;5017638;28;20112;-81
2023/05/29 08:32:28;;;;;;;9.32;3.00;;;;;;;13.68;72.42;102532.94;4994669;28;20083;-81
2023/05/29 08:34:54;;;;;;;12.20;3.25;;;;;;;13.76;71.25;102536.75;5012077;28;20144;-81
2023/05/29 08:37:19;;;;;;;14.30;3.65;;;;;;;13.67;70.04;102534.13;5023631;28;20038;-81
2023/05/29 08:39:45;;;;;;;14.02;2.63;;;;;;;13.78;70.93;102542.84;5019981;28;20510;-82
2023/05/29 08:42:17;;;;;;;12.63;2.63;;;;;;;13.88;69.72;102539.50;5004452;28;20093;-81
2023/05/29 08:44:46;;;;;;;17.65;4.88;;;;;;;13.78;70.49;102537.22;5018187;28;20522;-82
2023/05/29 08:47:18;;;;;;;18.60;4.63;;;;;;;13.91;70.86;102535.97;5005132;28;20025;-81
2023/05/29 08:49:45;;;;;;;8.55;2.70;;;;;;;14.38;70.41;102542.84;5015504;28;20081;-81
2023/05/29 08:52:19;;;;;;;8.60;2.53;;;;;;;14.41;70.43;102542.09;5015258;28;20029;-82
2023/05/29 08:54:45;;;;;;;15.95;4.68;;;;;;;14.35;67.43;102532.28;5024216;28;20076;-82
2023/05/29 08:57:11;;;;;;;8.63;3.10;;;;;;;14.54;70.27;102529.53;5013505;28;20050;-81
2023/05/29 08:59:44;;;;;;;8.52;2.92;;;;;;;14.74;67.52;102533.28;5023948;28;20116;-81
2023/05/29 09:02:11;;;;;;;;;;;;;;;14.74;68.58;102549.38;5021743;28;20030;-81
2023/05/29 09:04:41;;;;;;;14.00;3.13;;;;;;;14.36;66.45;102545.19;5001122;28;19940;-82
2023/05/29 09:07:08;;;;;;;11.50;3.17;;;;;;;14.49;67.17;102537.47;5022344;28;20128;-81
2023/05/29 09:09:34;;;;;;;10.00;2.70;;;;;;;14.52;64.96;102533.91;5000623;28;20029;-81
2023/05/29 09:12:00;;;;;;;11.50;4.00;;;;;;;14.49;68.01;102537.47;5002927;28;20079;-81
2023/05/29 09:14:36;;;;;;;6.57;2.85;;;;;;;14.65;64.73;102541.09;4999157;28;20052;-81
2023/05/29 09:17:03;;;;;;;9.27;2.90;;;;;;;14.60;65.62;102542.19;5012485;28;20021;-80
2023/05/29 09:19:28;;;;;;;12.75;3.00;;;;;;;14.58;66.55;102544.56;5017692;28;20033;-81
2023/05/29 09:22:03;;;;;;;9.15;3.13;;;;;;;14.79;65.96;102544.25;5021993;28;20025;-81
2023/05/29 09:24:29;;;;;;;6.50;2.65;;;;;;;15.11;65.96;102547.00;5026985;28;20542;-81
2023/05/29 09:26:56;;;;;;;6.50;2.88;;;;;;;14.98;66.08;102546.31;5006300;28;20025;-80
2023/05/29 09:29:22;;;;;;;12.45;2.92;;;;;;;14.83;67.06;102550.81;5023611;28;20087;-80
2023/05/29 09:31:48;;;;;;;9.32;3.78;;;;;;;14.95;66.66;102544.25;5021838;28;20017;-80
2023/05/29 09:34:14;;;;;;;13.50;3.08;;;;;;;14.89;63.94;102544.91;5020293;28;20592;-80
2023/05/29 09:36:39;;;;;;;9.52;2.75;;;;;;;14.80;63.85;102543.09;5004401;28;20112;-80
2023/05/29 09:39:09;;;;;;;12.73;3.53;;;;;;;15.13;64.73;102544.63;5003694;28;20395;-80
2023/05/29 09:41:41;;;;;;;12.95;3.58;;;;;;;15.15;62.30;102539.44;5002659;28;20029;-80
2023/05/29 09:44:10;;;;;;;5.97;3.30;;;;;;;15.34;65.80;102543.47;5011410;28;20395;-80
2023/05/29 09:46:35;;;;;;;10.27;3.30;;;;;;;15.42;65.05;102546.06;5000645;28;20038;-80
2023/05/29 09:49:22;;;;;;;14.57;4.18;;;;;;;15.29;61.77;102540.94;4994864;28;20021;-80
2023/05/29 09:51:48;;;;;;;13.98;2.85;;;;;;;15.04;61.70;102527.91;4997712;28;20439;-80
2023/05/29 09:54:18;;;;;;;11.32;3.80;;;;;;;15.19;63.66;102548.78;5000365;28;20496;-80
2023/05/29 09:56:45;;;;;;;15.30;3.42;;;;;;;15.21;61.10;102540.78;4996442;28;20033;-80
2023/05/29 09:59:11;;;;;;;11.82;3.47;;;;;;;15.44;61.59;102532.41;5011275;28;20438;-80
2023/05/29 10:01:40;;;;;;;8.38;2.78;;;;;;;15.53;61.87;102535.00;5012369;28;20034;-80
2023/05/29 10:04:05;;;;;;;11.77;3.10;;;;;;;15.60;61.35;102540.81;5008680;28;20322;-80
2023/05/29 10:06:32;;;;;;;12.05;2.75;;;;;;;15.52;61.08;102530.56;5009391;28;20053;-80
2023/05/29 10:09:00;;;;;;;15.15;4.82;;;;;;;15.80;60.99;102535.97;5017118;28;20030;-80
2023/05/29 10:11:27;;;;;;;8.55;2.60;;;;;;;16.03;60.47;102530.34;5017875;28;20026;-81
2023/05/29 10:13:55;;;;;;;6.63;2.42;;;;;;;15.78;61.67;102534.72;5014354;28;20071;-81
2023/05/29 10:16:23;;;;;;;10.00;3.25;;;;;;;15.72;60.56;102536.22;5017230;28;20038;-80
2023/05/29 10:18:55;;;;;;;10.77;2.60;;;;;;;15.71;59.85;102531.75;5014647;28;20120;-81
2023/05/29 10:21:28;;;;;;;9.80;3.00;;;;;;;16.10;59.39;102542.97;5067262;27;20397;-81
2023/05/29 10:23:55;;;;;;;11.55;2.72;;;;;;;16.16;60.59;102533.00;5018740;28;20034;-81
2023/05/29 10:26:26;;;;;;;12.18;3.25;;;;;;;16.24;65.17;102527.09;5017888;28;20034;-82
2023/05/29 10:29:10;;;;;;;10.02;3.50;;;;;;;16.27;58.64;102528.34;5019284;28;20030;-82
2023/05/29 10:32:14;;;;;;;10.13;2.60;;;;;;;16.20;62.40;102522.56;5038924;28;20498;-82
2023/05/29 10:35:11;;;;;;;7.28;3.20;;;;;;;16.28;60.63;102517.88;5017951;28;20443;-81
2023/05/29 10:38:02;;;;;;;14.20;3.60;;;;;;;16.64;58.96;102524.91;5039124;28;20079;-82
2023/05/29 10:40:28;;;;;;;7.47;2.33;;;;;;;16.66;59.03;102526.16;5018876;28;20397;-81
2023/05/29 10:42:58;;;;;;;9.95;2.65;;;;;;;16.58;57.34;102532.09;5019063;28;20374;-80
2023/05/29 10:45:30;;;;;;;10.77;3.30;;;;;;;16.66;58.82;102522.53;5020408;28;20037;-81
2023/05/29 10:47:56;;;;;;;12.20;2.95;;;;;;;16.55;56.55;102522.38;5021677;28;20037;-81
2023/05/29 10:50:40;;;;;;;9.85;2.95;;;;;;;16.98;55.77;102516.56;5027117;28;20108;-81
2023/05/29 10:53:13;;;;;;;8.52;3.38;;;;;;;17.10;58.10;102519.16;5038928;28;20108;-81
2023/05/29 10:55:40;;;;;;;11.77;3.25;;;;;;;17.41;56.06;102528.44;5026771;28;20204;-81
2023/05/29 10:58:17;;;;;;;17.35;2.80;;;;;;;16.94;55.28;102516.50;5018823;28;20033;-81
2023/05/29 11:00:46;;;;;;;8.50;2.63;;;;;;;17.20;55.21;102517.66;5010523;28;20405;-81
2023/05/29 11:03:15;;;;;;;10.90;2.15;;;;;;;17.06;56.16;102512.63;5014719;28;20694;-81
2023/05/29 11:06:23;;;;;;;7.25;2.63;;;;;;;17.47;56.57;102516.38;5008718;28;20113;-81
2023/05/29 11:08:56;;;;;;;8.18;2.25;;;;;;;17.56;56.85;102510.44;5002920;28;20617;-81
2023/05/29 11:11:27;;;;;;;12.70;2.15;;;;;;;17.84;57.72;102523.31;5011357;28;20040;-81
2023/05/29 11:13:55;;;;;;;12.90;3.25;;;;;;;17.39;55.55;102525.16;4992022;28;20045;-81
2023/05/29 11:16:37;;;;;;;4.80;1.98;;;;;;;17.57;55.25;102514.06;4997728;28;20030;-81
2023/05/29 11:19:11;;;;;;;10.77;2.92;;;;;;;17.62;54.69;102531.50;5016809;28;20030;-81
2023/05/29 11:22:02;;;;;;;7.70;2.28;;;;;;;17.00;57.04;102519.81;5016676;28;20030;-81
2023/05/29 11:24:29;;;;;;;7.22;2.72;;;;;;;17.55;55.56;102511.63;5001064;28;20037;-81